createdAt,value
2023-02-11T00:06:02.014Z,56.29
2023-02-11T00:27:47.758Z,56.02
2023-02-11T00:49:33.783Z,67.35
2023-02-11T01:11:22.296Z,54.04
2023-02-11T01:33:07.972Z,66.78
2023-02-11T01:55:18.331Z,51.73
2023-02-11T02:17:04.063Z,63.65
2023-02-11T02:38:55.638Z,56.70
2023-02-11T03:00:48.150Z,62.15
2023-02-11T03:22:38.651Z,57.11
2023-02-11T03:44:27.579Z,60.66
2023-02-11T04:06:13.341Z,61.29
2023-02-11T04:27:59.024Z,53.21
2023-02-11T04:49:45.079Z,59.03
2023-02-11T05:11:30.793Z,61.15
2023-02-11T05:33:17.192Z,58.63
2023-02-11T05:55:03.140Z,56.65
2023-02-11T06:16:48.772Z,62.36
2023-02-11T06:38:35.239Z,54.91
2023-02-11T07:11:43.867Z,59.60
2023-02-11T07:33:29.683Z,61.75
2023-02-11T07:55:13.813Z,54.64
2023-02-11T08:16:59.359Z,61.91
2023-02-11T08:44:40.872Z,58.33
2023-02-11T09:06:27.464Z,59.36
2023-02-11T09:28:13.242Z,62.63
2023-02-11T09:50:03.228Z,61.08
2023-02-11T10:11:57.105Z,61.44
2023-02-11T10:33:48.177Z,60.47
2023-02-11T10:55:34.046Z,61.07
2023-02-11T11:17:21.896Z,61.14
2023-02-11T11:39:22.011Z,60.23
2023-02-11T12:01:21.672Z,60.23
2023-02-11T12:23:25.991Z,62.57
2023-02-11T12:45:25.942Z,61.21
2023-02-11T13:07:18.090Z,61.07
2023-02-11T13:29:16.937Z,61.11
2023-02-11T13:51:06.167Z,61.42
2023-02-11T14:13:20.737Z,61.74
2023-02-11T14:35:15.147Z,61.68
2023-02-11T14:57:14.475Z,60.76
2023-02-11T15:19:05.521Z,62.11
2023-02-11T15:41:00.860Z,65.27
2023-02-11T16:02:50.909Z,68.48
2023-02-11T16:24:39.196Z,68.14
2023-02-11T16:46:25.034Z,68.36
2023-02-11T17:08:12.260Z,70.27
2023-02-11T17:29:58.198Z,70.35
2023-02-11T17:51:43.970Z,72.61
2023-02-11T18:13:29.971Z,73.96
2023-02-11T18:35:17.001Z,74.48
2023-02-11T18:57:02.721Z,76.44
2023-02-11T19:18:48.425Z,75.52
2023-02-11T19:40:34.266Z,74.87
2023-02-11T20:02:19.937Z,74.97
2023-02-11T20:24:05.970Z,75.52
2023-02-11T20:45:52.090Z,75.02
2023-02-11T21:07:39.174Z,73.60
2023-02-11T21:33:27.133Z,73.31
2023-02-11T21:55:13.127Z,72.27
2023-02-11T22:16:59.114Z,69.68
2023-02-11T22:38:44.818Z,67.98
2023-02-11T23:00:36.895Z,68.26
2023-02-11T23:22:22.576Z,68.99
2023-02-11T23:44:08.286Z,70.97
